createdAt,value
2018-07-24T00:01:07.926Z,942.99
2018-07-24T00:02:14.964Z,942.98
2018-07-24T00:03:23.147Z,942.97
2018-07-24T00:04:31.103Z,942.95
2018-07-24T00:05:39.174Z,942.97
2018-07-24T00:06:47.234Z,942.94
2018-07-24T00:07:55.640Z,942.92
2018-07-24T00:09:03.389Z,942.94
2018-07-24T00:10:11.441Z,942.94
2018-07-24T00:11:19.596Z,942.96
2018-07-24T00:12:27.572Z,942.97
2018-07-24T00:13:35.911Z,942.93
2018-07-24T00:14:44.197Z,942.90
2018-07-24T00:15:51.959Z,942.90
2018-07-24T00:17:00.036Z,942.88
2018-07-24T00:18:08.375Z,942.91
2018-07-24T00:19:16.528Z,942.83
2018-07-24T00:20:24.450Z,942.86
2018-07-24T00:21:32.513Z,942.86
2018-07-24T00:22:40.553Z,942.83
2018-07-24T00:23:48.620Z,942.83
2018-07-24T00:24:56.779Z,942.83
2018-07-24T00:26:04.745Z,942.83
2018-07-24T00:27:12.916Z,942.77
2018-07-24T00:28:20.978Z,942.75
2018-07-24T00:29:29.001Z,942.77
2018-07-24T00:30:37.487Z,942.73
2018-07-24T00:31:45.076Z,942.73
2018-07-24T00:32:53.140Z,942.72
2018-07-24T00:34:01.213Z,942.68
2018-07-24T00:35:09.279Z,942.65
2018-07-24T00:36:17.492Z,942.68
2018-07-24T00:37:25.870Z,942.71
2018-07-24T00:38:33.682Z,942.70
2018-07-24T00:39:41.751Z,942.67
2018-07-24T00:40:49.820Z,942.68
2018-07-24T00:41:57.990Z,942.66
2018-07-24T00:43:05.975Z,942.64
2018-07-24T00:44:14.016Z,942.64
2018-07-24T00:45:23.126Z,942.60
2018-07-24T00:46:30.345Z,942.61
2018-07-24T00:47:38.625Z,942.57
2018-07-24T00:48:46.473Z,942.60
2018-07-24T00:49:54.545Z,942.59
2018-07-24T00:51:02.882Z,942.58
2018-07-24T00:52:10.980Z,942.62
2018-07-24T00:53:19.195Z,942.60
2018-07-24T00:54:27.011Z,942.62
2018-07-24T00:55:35.058Z,942.62
2018-07-24T00:56:43.134Z,942.61
2018-07-24T00:57:51.309Z,942.58
2018-07-24T00:58:59.271Z,942.57
2018-07-24T01:00:07.336Z,942.57
2018-07-24T01:01:15.426Z,942.57
2018-07-24T01:02:25.065Z,942.54
2018-07-24T01:03:31.579Z,942.55
2018-07-24T01:04:39.596Z,942.55
2018-07-24T01:05:47.664Z,942.58
2018-07-24T01:06:55.711Z,942.52
2018-07-24T01:08:03.882Z,942.55
2018-07-24T01:09:11.872Z,942.48
2018-07-24T01:10:19.917Z,942.46
2018-07-24T01:11:28.201Z,942.44
2018-07-24T01:12:36.399Z,942.48
2018-07-24T01:13:44.421Z,942.47
2018-07-24T01:14:52.376Z,942.47
2018-07-24T01:16:00.471Z,942.42
2018-07-24T01:17:08.793Z,942.42
2018-07-24T01:18:16.587Z,942.41
2018-07-24T01:19:24.746Z,942.36
2018-07-24T01:20:32.707Z,942.35
2018-07-24T01:21:40.982Z,942.36
2018-07-24T01:22:49.228Z,942.31
2018-07-24T01:23:57.555Z,942.33
2018-07-24T01:25:05.397Z,942.35
2018-07-24T01:26:13.493Z,942.31
2018-07-24T01:27:21.518Z,942.28
2018-07-24T01:28:29.620Z,942.29
2018-07-24T01:29:37.645Z,942.25
2018-07-24T01:30:45.867Z,942.26
2018-07-24T01:31:53.808Z,942.25
2018-07-24T01:33:01.828Z,942.23
2018-07-24T01:34:10.980Z,942.21
2018-07-24T01:35:18.061Z,942.25
2018-07-24T01:36:26.899Z,942.24
2018-07-24T01:37:34.144Z,942.21
2018-07-24T01:38:42.153Z,942.17
2018-07-24T01:39:50.227Z,942.20
2018-07-24T01:40:58.395Z,942.16
2018-07-24T01:42:06.352Z,942.15
2018-07-24T01:43:14.522Z,942.16
2018-07-24T01:44:22.492Z,942.14
2018-07-24T01:45:30.553Z,942.12
2018-07-24T01:46:38.773Z,942.13
2018-07-24T01:47:46.679Z,942.15
2018-07-24T01:48:54.756Z,942.14
2018-07-24T01:50:02.824Z,942.14
2018-07-24T01:51:10.890Z,942.12
2018-07-24T01:52:19.057Z,942.08
2018-07-24T01:53:27.073Z,942.11
2018-07-24T01:54:35.077Z,942.05
2018-07-24T01:55:43.167Z,942.07
2018-07-24T01:56:51.247Z,942.08
2018-07-24T01:57:59.425Z,942.07
2018-07-24T01:59:07.555Z,942.04
2018-07-24T02:00:15.406Z,942.06
2018-07-24T02:01:23.857Z,942.04
2018-07-24T02:02:31.649Z,942.00
2018-07-24T02:03:39.628Z,941.97
2018-07-24T02:04:47.890Z,941.97
2018-07-24T02:05:55.960Z,941.98
2018-07-24T02:07:04.029Z,941.97
2018-07-24T02:08:12.197Z,941.97
2018-07-24T02:09:20.155Z,941.96
2018-07-24T02:10:28.229Z,941.89
2018-07-24T02:11:36.296Z,941.93
2018-07-24T02:12:44.397Z,941.93
2018-07-24T02:13:52.502Z,941.93
2018-07-24T02:15:00.569Z,941.93
2018-07-24T02:16:08.591Z,941.93
2018-07-24T02:17:16.600Z,941.93
2018-07-24T02:18:24.678Z,941.91
2018-07-24T02:19:32.865Z,941.91
2018-07-24T02:20:40.812Z,941.93
2018-07-24T02:21:48.934Z,941.88
2018-07-24T02:22:57.034Z,941.85
2018-07-24T02:24:05.009Z,941.91
2018-07-24T02:25:13.341Z,941.85
2018-07-24T02:26:21.340Z,941.87
2018-07-24T02:27:29.398Z,941.87
2018-07-24T02:28:38.499Z,941.84
2018-07-24T02:29:45.510Z,941.84
2018-07-24T02:30:53.903Z,941.85
2018-07-24T02:32:01.960Z,941.87
2018-07-24T02:33:09.930Z,941.85
2018-07-24T02:34:17.997Z,941.86
2018-07-24T02:35:26.057Z,941.84
2018-07-24T02:36:34.370Z,941.81
2018-07-24T02:37:42.182Z,941.84
2018-07-24T02:38:50.248Z,941.81
2018-07-24T02:39:58.322Z,941.80
2018-07-24T02:41:06.481Z,941.82
2018-07-24T02:42:14.443Z,941.75
2018-07-24T02:43:22.504Z,941.75
2018-07-24T02:44:30.909Z,941.71
2018-07-24T02:45:38.647Z,941.74
2018-07-24T02:46:46.799Z,941.71
2018-07-24T02:47:54.781Z,941.69
2018-07-24T02:49:02.828Z,941.75
2018-07-24T02:50:10.946Z,941.70
2018-07-24T02:51:18.965Z,941.65
2018-07-24T02:52:27.181Z,941.70
2018-07-24T02:53:35.090Z,941.64
2018-07-24T02:54:44.440Z,941.66
2018-07-24T02:55:51.229Z,941.66
2018-07-24T02:56:59.285Z,941.66
2018-07-24T02:58:07.405Z,941.70
2018-07-24T02:59:15.385Z,941.70
2018-07-24T03:00:23.481Z,941.68
2018-07-24T03:01:31.551Z,941.69
2018-07-24T03:02:39.704Z,941.67
2018-07-24T03:03:47.682Z,941.68
2018-07-24T03:04:55.736Z,941.64
2018-07-24T03:06:03.807Z,941.67
2018-07-24T03:07:11.866Z,941.63
2018-07-24T03:08:19.980Z,941.63
2018-07-24T03:09:27.987Z,941.63
2018-07-24T03:10:36.044Z,941.63
2018-07-24T03:11:44.125Z,941.63
2018-07-24T03:12:52.278Z,941.57
2018-07-24T03:14:00.251Z,941.59
2018-07-24T03:15:08.314Z,941.56
2018-07-24T03:16:16.446Z,941.55
2018-07-24T03:17:24.583Z,941.60
2018-07-24T03:18:32.606Z,941.59
2018-07-24T03:19:40.580Z,941.58
2018-07-24T03:20:48.642Z,941.58
2018-07-24T03:21:56.708Z,941.57
2018-07-24T03:23:04.879Z,941.59
2018-07-24T03:24:12.939Z,941.61
2018-07-24T03:25:20.902Z,941.57
2018-07-24T03:26:28.965Z,941.59
2018-07-24T03:27:37.080Z,941.55
2018-07-24T03:28:45.108Z,941.59
2018-07-24T03:29:53.173Z,941.59
2018-07-24T03:31:01.231Z,941.59
2018-07-24T03:32:09.297Z,941.57
2018-07-24T03:33:17.459Z,941.58
2018-07-24T03:34:25.499Z,941.59
2018-07-24T03:35:33.493Z,941.60
2018-07-24T03:36:41.558Z,941.60
2018-07-24T03:37:49.721Z,941.61
2018-07-24T03:38:57.691Z,941.59
2018-07-24T03:40:05.825Z,941.62
2018-07-24T03:41:13.816Z,941.57
2018-07-24T03:42:22.132Z,941.58
2018-07-24T03:43:29.960Z,941.56
2018-07-24T03:44:38.013Z,941.57
2018-07-24T03:45:46.105Z,941.52
2018-07-24T03:46:54.140Z,941.59
2018-07-24T03:48:02.351Z,941.53
2018-07-24T03:49:10.268Z,941.52
2018-07-24T03:50:18.333Z,941.52
2018-07-24T03:51:26.455Z,941.53
2018-07-24T03:52:34.560Z,941.53
2018-07-24T03:53:42.634Z,941.51
2018-07-24T03:54:50.587Z,941.52
2018-07-24T03:55:58.764Z,941.54
2018-07-24T03:57:06.732Z,941.51
2018-07-24T03:58:14.954Z,941.57
2018-07-24T03:59:22.924Z,941.55
2018-07-24T04:00:30.920Z,941.57
2018-07-24T04:01:39.099Z,941.57
2018-07-24T04:02:47.147Z,941.55
2018-07-24T04:03:55.110Z,941.59
2018-07-24T04:05:03.382Z,941.58
2018-07-24T04:06:11.455Z,941.59
2018-07-24T04:07:19.622Z,941.58
2018-07-24T04:08:27.947Z,941.57
2018-07-24T04:09:35.727Z,941.53
2018-07-24T04:10:44.036Z,941.54
2018-07-24T04:11:52.433Z,941.54
2018-07-24T04:13:01.308Z,941.54
2018-07-24T04:14:07.910Z,941.53
2018-07-24T04:15:15.959Z,941.54
2018-07-24T04:16:24.032Z,941.52
2018-07-24T04:17:32.171Z,941.52
2018-07-24T04:18:40.171Z,941.49
2018-07-24T04:19:48.224Z,941.51
2018-07-24T04:20:56.292Z,941.51
2018-07-24T04:22:04.396Z,941.51
2018-07-24T04:23:12.550Z,941.51
2018-07-24T04:24:20.535Z,941.50
2018-07-24T04:25:28.715Z,941.48
2018-07-24T04:26:37.196Z,941.48
2018-07-24T04:27:44.998Z,941.52
2018-07-24T04:28:53.089Z,941.51
2018-07-24T04:30:01.037Z,941.50
2018-07-24T04:31:09.223Z,941.54
2018-07-24T04:32:17.359Z,941.50
2018-07-24T04:33:25.441Z,941.49
2018-07-24T04:34:33.847Z,941.52
2018-07-24T04:35:41.923Z,941.53
2018-07-24T04:36:49.643Z,941.48
2018-07-24T04:37:57.705Z,941.45
2018-07-24T04:39:05.825Z,941.50
2018-07-24T04:40:13.849Z,941.51
2018-07-24T04:41:21.990Z,941.49
2018-07-24T04:42:29.994Z,941.51
2018-07-24T04:43:38.008Z,941.51
2018-07-24T04:44:46.168Z,941.49
2018-07-24T04:45:54.188Z,941.49
2018-07-24T04:47:02.222Z,941.51
2018-07-24T04:48:10.287Z,941.50
2018-07-24T04:49:18.347Z,941.51
2018-07-24T04:50:26.785Z,941.50
2018-07-24T04:51:34.669Z,941.48
2018-07-24T04:52:43.539Z,941.51
2018-07-24T04:53:50.815Z,941.46
2018-07-24T04:54:58.965Z,941.51
2018-07-24T04:56:07.025Z,941.50
2018-07-24T04:57:15.043Z,941.50
2018-07-24T04:58:23.173Z,941.49
2018-07-24T04:59:31.234Z,941.47
2018-07-24T05:00:39.209Z,941.47
2018-07-24T05:01:47.314Z,941.49
2018-07-24T05:02:55.499Z,941.49
2018-07-24T05:04:03.612Z,941.50
2018-07-24T05:05:11.676Z,941.50
2018-07-24T05:06:19.744Z,941.49
2018-07-24T05:07:27.789Z,941.50
2018-07-24T05:08:35.840Z,941.52
2018-07-24T05:09:43.930Z,941.56
2018-07-24T05:10:51.993Z,941.55
2018-07-24T05:12:00.176Z,941.76
2018-07-24T05:13:08.966Z,941.60
2018-07-24T05:14:16.526Z,941.54
2018-07-24T05:15:24.484Z,941.48
2018-07-24T05:16:32.553Z,941.45
2018-07-24T05:17:40.674Z,941.49
2018-07-24T05:18:48.685Z,941.48
2018-07-24T05:19:56.740Z,941.49
2018-07-24T05:21:04.814Z,941.48
2018-07-24T05:22:12.873Z,941.49
2018-07-24T05:23:21.043Z,941.53
2018-07-24T05:24:29.127Z,941.53
2018-07-24T05:25:37.106Z,941.53
2018-07-24T05:26:45.138Z,941.56
2018-07-24T05:27:53.289Z,941.53
2018-07-24T05:29:01.629Z,941.52
2018-07-24T05:30:10.908Z,941.53
2018-07-24T05:31:18.626Z,941.54
2018-07-24T05:32:26.760Z,941.52
2018-07-24T05:33:35.721Z,941.57
2018-07-24T05:34:43.231Z,941.57
2018-07-24T05:35:50.894Z,941.59
2018-07-24T05:36:59.210Z,941.59
2018-07-24T05:38:07.345Z,941.62
2018-07-24T05:39:15.085Z,941.58
2018-07-24T05:40:23.318Z,941.61
2018-07-24T05:41:31.220Z,941.64
2018-07-24T05:42:39.312Z,941.65
2018-07-24T05:43:47.352Z,941.63
2018-07-24T05:44:55.412Z,941.63
2018-07-24T05:46:03.604Z,941.68
2018-07-24T05:47:11.557Z,941.68
2018-07-24T05:48:20.028Z,941.70
2018-07-24T05:49:27.698Z,941.70
2018-07-24T05:50:35.777Z,941.69
2018-07-24T05:51:43.931Z,941.72
2018-07-24T05:52:52.638Z,941.72
2018-07-24T05:55:11.186Z,941.76
2018-07-24T05:56:19.134Z,941.70
2018-07-24T05:57:27.075Z,941.80
2018-07-24T05:58:35.251Z,941.78
2018-07-24T05:59:43.553Z,941.78
2018-07-24T06:00:51.658Z,941.80
2018-07-24T06:01:59.694Z,941.77
2018-07-24T06:04:18.548Z,941.77
2018-07-24T06:05:26.510Z,941.78
2018-07-24T06:06:34.851Z,941.77
2018-07-24T06:07:42.649Z,941.82
2018-07-24T06:08:50.810Z,941.83
2018-07-24T06:09:58.776Z,941.87
2018-07-24T06:11:07.100Z,941.82
2018-07-24T06:12:14.903Z,941.82
2018-07-24T06:13:22.988Z,941.80
2018-07-24T06:14:31.246Z,941.81
2018-07-24T06:15:39.218Z,941.83
2018-07-24T06:18:04.617Z,941.79
2018-07-24T06:19:12.464Z,941.82
2018-07-24T06:20:20.583Z,941.80
2018-07-24T06:21:28.557Z,941.83
2018-07-24T06:22:36.608Z,941.82
2018-07-24T06:23:44.732Z,941.80
2018-07-24T06:24:52.742Z,941.80
2018-07-24T06:26:00.898Z,941.79
2018-07-24T06:27:08.883Z,941.82
2018-07-24T06:29:29.849Z,941.81
2018-07-24T06:30:37.932Z,941.81
2018-07-24T06:31:46.103Z,941.82
2018-07-24T06:32:54.107Z,941.80
2018-07-24T06:34:02.430Z,941.84
2018-07-24T06:35:10.407Z,941.84
2018-07-24T06:36:18.408Z,941.85
2018-07-24T06:37:26.459Z,941.89
2018-07-24T06:38:34.406Z,941.84
2018-07-24T06:39:42.722Z,941.86
2018-07-24T06:40:50.742Z,941.88
2018-07-24T06:41:58.876Z,941.85
2018-07-24T06:43:06.975Z,941.80
2018-07-24T06:44:15.258Z,941.79
2018-07-24T06:45:23.030Z,941.81
2018-07-24T06:46:31.137Z,941.81
2018-07-24T06:47:39.166Z,941.84
2018-07-24T06:48:47.318Z,941.86
2018-07-24T06:49:55.377Z,941.87
2018-07-24T06:51:03.464Z,941.91
2018-07-24T06:52:11.438Z,941.90
2018-07-24T06:53:19.505Z,941.91
2018-07-24T06:54:27.712Z,941.92
2018-07-24T06:55:35.632Z,941.93
2018-07-24T06:56:43.899Z,941.94
2018-07-24T06:57:51.774Z,941.94
2018-07-24T06:58:59.839Z,941.93
2018-07-24T07:00:08.026Z,941.91
2018-07-24T07:01:15.964Z,941.94
2018-07-24T07:02:24.054Z,941.93
2018-07-24T07:03:32.190Z,941.94
2018-07-24T07:04:40.198Z,941.88
2018-07-24T07:05:48.610Z,941.92
2018-07-24T07:06:56.418Z,941.92
2018-07-24T07:08:04.490Z,941.95
2018-07-24T07:09:12.471Z,941.97
2018-07-24T07:10:20.577Z,941.98
2018-07-24T07:11:28.701Z,941.99
2018-07-24T07:12:36.706Z,941.96
2018-07-24T07:13:44.758Z,941.99
2018-07-24T07:14:52.813Z,942.06
2018-07-24T07:16:00.912Z,942.20
2018-07-24T07:17:09.408Z,942.42
2018-07-24T07:18:17.052Z,942.24
2018-07-24T07:19:25.094Z,942.26
2018-07-24T07:20:33.472Z,942.25
2018-07-24T07:21:41.509Z,942.22
2018-07-24T07:22:49.411Z,942.13
2018-07-24T07:23:57.380Z,942.21
2018-07-24T07:25:06.310Z,942.28
2018-07-24T07:26:14.211Z,942.36
2018-07-24T07:27:22.187Z,942.31
2018-07-24T07:28:30.466Z,942.31
2018-07-24T07:29:38.429Z,942.15
2018-07-24T07:30:46.406Z,942.25
2018-07-24T07:31:54.557Z,942.53
2018-07-24T07:33:02.821Z,942.60
2018-07-24T07:34:10.712Z,942.91
2018-07-24T07:35:18.686Z,943.25
2018-07-24T07:36:26.967Z,943.53
2018-07-24T07:37:35.305Z,943.75
2018-07-24T07:38:43.206Z,943.91
2018-07-24T07:39:51.288Z,943.95
2018-07-24T07:41:00.248Z,944.01
2018-07-24T07:42:07.317Z,943.86
2018-07-24T07:43:15.546Z,943.32
2018-07-24T07:44:23.541Z,943.24
2018-07-24T07:45:31.697Z,943.62
2018-07-24T07:46:39.662Z,944.04
2018-07-24T07:47:47.713Z,944.56
2018-07-24T07:48:55.788Z,944.54
2018-07-24T07:50:04.129Z,944.35
2018-07-24T07:51:12.034Z,944.43
2018-07-24T07:52:20.047Z,944.49
2018-07-24T07:53:28.104Z,944.76
2018-07-24T07:54:36.279Z,944.98
2018-07-24T07:55:44.298Z,945.18
2018-07-24T07:56:52.466Z,945.38
2018-07-24T07:58:00.438Z,945.51
2018-07-24T07:59:08.519Z,945.58
2018-07-24T08:00:16.583Z,945.76
2018-07-24T08:01:24.879Z,946.18
2018-07-24T08:02:33.105Z,946.78
2018-07-24T08:03:41.036Z,947.13
2018-07-24T08:04:49.105Z,947.43
2018-07-24T08:05:57.390Z,947.74
2018-07-24T08:07:05.710Z,948.09
2018-07-24T08:08:13.659Z,948.33
2018-07-24T08:09:21.648Z,948.42
2018-07-24T08:10:29.821Z,948.67
2018-07-24T08:11:37.902Z,948.99
2018-07-24T08:12:45.868Z,949.01
2018-07-24T08:13:54.068Z,949.18
2018-07-24T08:15:02.056Z,949.70
2018-07-24T08:16:10.421Z,950.21
2018-07-24T08:17:18.420Z,950.35
2018-07-24T08:18:26.501Z,950.42
2018-07-24T08:19:34.674Z,950.43
2018-07-24T08:20:42.656Z,950.67
2018-07-24T08:21:50.736Z,950.86
2018-07-24T08:24:14.364Z,950.26
2018-07-24T08:25:22.553Z,950.06
2018-07-24T08:26:30.797Z,949.96
2018-07-24T08:27:38.819Z,950.04
2018-07-24T08:28:47.943Z,949.91
2018-07-24T08:29:55.017Z,949.63
2018-07-24T08:31:03.156Z,949.99
2018-07-24T08:32:11.148Z,950.63
2018-07-24T08:33:19.218Z,951.39
2018-07-24T08:34:27.299Z,950.91
2018-07-24T08:35:35.353Z,950.22
2018-07-24T08:36:43.585Z,950.26
2018-07-24T08:37:51.628Z,950.45
2018-07-24T08:38:59.637Z,950.54
2018-07-24T08:40:07.731Z,950.58
2018-07-24T08:41:15.878Z,950.54
2018-07-24T08:42:23.977Z,950.37
2018-07-24T08:43:31.951Z,950.23
2018-07-24T08:44:40.077Z,950.32
2018-07-24T08:45:48.119Z,950.54
2018-07-24T08:46:56.221Z,950.40
2018-07-24T08:48:04.371Z,950.10
2018-07-24T08:49:13.418Z,950.17
2018-07-24T08:50:21.461Z,950.03
2018-07-24T08:51:29.565Z,949.35
2018-07-24T08:52:37.725Z,949.34
2018-07-24T08:53:46.272Z,949.22
2018-07-24T08:54:54.039Z,949.09
2018-07-24T08:56:01.887Z,948.96
2018-07-24T08:57:09.960Z,948.88
2018-07-24T08:58:18.042Z,948.47
2018-07-24T08:59:26.217Z,948.10
2018-07-24T09:00:34.234Z,948.10
2018-07-24T09:02:54.445Z,947.81
2018-07-24T09:04:02.540Z,947.57
2018-07-24T09:05:10.927Z,947.37
2018-07-24T09:06:18.646Z,947.13
2018-07-24T09:07:26.791Z,946.92
2018-07-24T09:08:35.843Z,946.82
2018-07-24T09:09:42.899Z,946.68
2018-07-24T09:10:51.097Z,946.28
2018-07-24T09:11:59.169Z,945.56
2018-07-24T09:13:07.154Z,945.06
2018-07-24T09:14:15.233Z,945.08
2018-07-24T09:15:23.339Z,945.18
2018-07-24T09:16:31.502Z,945.04
2018-07-24T09:17:39.490Z,944.87
2018-07-24T09:18:47.576Z,944.86
2018-07-24T09:19:55.625Z,944.78
2018-07-24T09:21:04.091Z,944.71
2018-07-24T09:22:11.920Z,944.60
2018-07-24T09:23:20.268Z,944.59
2018-07-24T09:24:27.982Z,943.80
2018-07-24T09:25:36.067Z,942.30
2018-07-24T09:26:44.153Z,941.91
2018-07-24T09:27:52.416Z,941.91
2018-07-24T09:29:00.325Z,941.93
2018-07-24T09:30:08.402Z,941.91
2018-07-24T09:31:16.473Z,941.90
2018-07-24T09:32:24.553Z,941.86
2018-07-24T09:33:32.739Z,941.90
2018-07-24T09:34:40.720Z,941.92
2018-07-24T09:35:48.993Z,941.86
2018-07-24T09:36:57.073Z,941.94
2018-07-24T09:38:05.394Z,941.89
2018-07-24T09:39:13.337Z,941.92
2018-07-24T09:40:21.332Z,941.86
2018-07-24T09:41:29.586Z,941.84
2018-07-24T09:42:37.781Z,941.94
2018-07-24T09:43:45.825Z,941.87
2018-07-24T09:44:53.919Z,941.85
2018-07-24T09:46:01.908Z,941.87
2018-07-24T09:47:09.994Z,941.84
2018-07-24T09:48:18.074Z,941.86
2018-07-24T09:49:26.231Z,941.91
2018-07-24T09:50:34.343Z,941.87
2018-07-24T09:51:42.288Z,941.84
2018-07-24T09:52:50.632Z,941.85
2018-07-24T09:55:12.790Z,941.84
2018-07-24T09:56:20.979Z,941.79
2018-07-24T09:57:28.951Z,941.80
2018-07-24T09:58:37.063Z,941.83
2018-07-24T09:59:45.165Z,941.83
2018-07-24T10:00:53.155Z,941.74
2018-07-24T10:02:01.334Z,941.74
2018-07-24T10:03:09.312Z,941.77
2018-07-24T10:04:17.382Z,941.76
2018-07-24T10:05:25.704Z,941.75
2018-07-24T10:06:33.987Z,941.71
2018-07-24T10:07:52.479Z,941.72
2018-07-24T10:08:50.342Z,941.69
2018-07-24T10:09:58.371Z,941.68
2018-07-24T10:11:06.736Z,941.65
2018-07-24T10:12:14.577Z,941.72
2018-07-24T10:13:23.310Z,941.66
2018-07-24T10:14:30.673Z,941.68
2018-07-24T10:15:38.848Z,941.64
2018-07-24T10:16:46.861Z,941.67
2018-07-24T10:17:54.885Z,941.66
2018-07-24T10:19:03.152Z,941.66
2018-07-24T10:20:11.041Z,941.66
2018-07-24T10:21:19.108Z,941.63
2018-07-24T10:22:27.178Z,941.63
2018-07-24T10:23:35.245Z,941.62
2018-07-24T10:24:43.426Z,941.62
2018-07-24T10:25:51.473Z,941.60
2018-07-24T10:26:59.944Z,941.58
2018-07-24T10:28:08.004Z,941.56
2018-07-24T10:29:16.094Z,941.57
2018-07-24T10:30:24.304Z,941.54
2018-07-24T10:31:32.298Z,941.49
2018-07-24T10:32:40.275Z,941.50
2018-07-24T10:33:48.362Z,941.47
2018-07-24T10:34:56.438Z,941.51
2018-07-24T10:36:04.581Z,941.50
2018-07-24T10:37:12.561Z,941.48
2018-07-24T10:38:20.645Z,941.49
2018-07-24T10:39:28.765Z,941.46
2018-07-24T10:40:36.788Z,941.50
2018-07-24T10:41:44.948Z,941.50
2018-07-24T10:42:52.931Z,941.49
2018-07-24T10:44:01.020Z,941.51
2018-07-24T10:45:09.090Z,941.52
2018-07-24T10:46:17.160Z,941.54
2018-07-24T10:47:25.312Z,941.46
2018-07-24T10:48:33.310Z,941.50
2018-07-24T10:49:41.367Z,941.46
2018-07-24T10:50:49.467Z,941.44
2018-07-24T10:51:57.550Z,941.42
2018-07-24T10:53:05.671Z,941.43
2018-07-24T10:54:13.768Z,941.39
2018-07-24T10:55:22.185Z,941.39
2018-07-24T10:56:29.828Z,941.33
2018-07-24T10:57:38.550Z,941.37
2018-07-24T10:58:47.777Z,941.33
2018-07-24T10:59:54.039Z,941.34
2018-07-24T11:01:02.135Z,941.38
2018-07-24T11:02:10.559Z,941.34
2018-07-24T11:03:18.378Z,941.34
2018-07-24T11:04:26.449Z,941.33
2018-07-24T11:05:34.415Z,941.27
2018-07-24T11:06:42.548Z,941.33
2018-07-24T11:07:50.582Z,941.28
2018-07-24T11:08:58.666Z,941.24
2018-07-24T11:10:07.018Z,941.29
2018-07-24T11:11:15.240Z,941.24
2018-07-24T11:12:23.322Z,941.24
2018-07-24T11:13:31.153Z,941.23
2018-07-24T11:14:39.219Z,941.25
2018-07-24T11:15:47.389Z,941.22
2018-07-24T11:16:55.339Z,941.26
2018-07-24T11:18:03.484Z,941.24
2018-07-24T11:19:11.688Z,941.23
2018-07-24T11:20:19.588Z,941.23
2018-07-24T11:21:27.738Z,941.25
2018-07-24T11:22:35.919Z,941.28
2018-07-24T11:23:43.804Z,941.27
2018-07-24T11:24:52.635Z,941.21
2018-07-24T11:25:59.964Z,941.19
2018-07-24T11:27:08.144Z,941.24
2018-07-24T11:28:16.137Z,941.23
2018-07-24T11:29:24.191Z,941.18
2018-07-24T11:30:32.270Z,941.24
2018-07-24T11:31:40.443Z,941.26
2018-07-24T11:32:48.498Z,941.21
2018-07-24T11:33:58.633Z,941.23
2018-07-24T11:35:04.683Z,941.24
2018-07-24T11:36:12.722Z,941.25
2018-07-24T11:37:20.705Z,941.19
2018-07-24T11:38:28.841Z,941.29
2018-07-24T11:39:36.851Z,941.24
2018-07-24T11:40:44.921Z,941.20
2018-07-24T11:41:53.041Z,941.17
2018-07-24T11:43:01.076Z,941.11
2018-07-24T11:44:09.401Z,941.13
2018-07-24T11:45:17.692Z,941.10
2018-07-24T11:46:25.487Z,941.11
2018-07-24T11:47:33.581Z,941.09
2018-07-24T11:48:41.684Z,941.10
2018-07-24T11:49:49.774Z,941.07
2018-07-24T11:50:57.908Z,941.10
2018-07-24T11:52:05.902Z,941.07
2018-07-24T11:53:13.928Z,941.06
2018-07-24T11:54:22.068Z,941.03
2018-07-24T11:55:30.674Z,941.02
2018-07-24T11:56:38.824Z,941.03
2018-07-24T11:57:47.521Z,941.02
2018-07-24T11:58:55.405Z,941.03
2018-07-24T12:00:03.147Z,941.02
2018-07-24T12:01:11.133Z,941.05
2018-07-24T12:02:19.493Z,940.99
2018-07-24T12:03:27.478Z,941.00
2018-07-24T12:04:36.070Z,940.96
2018-07-24T12:05:43.859Z,940.96
2018-07-24T12:06:52.619Z,940.96
2018-07-24T12:08:00.392Z,940.97
2018-07-24T12:09:07.967Z,940.98
2018-07-24T12:10:16.823Z,940.96
2018-07-24T12:11:24.387Z,940.95
2018-07-24T12:12:33.944Z,940.93
2018-07-24T12:13:40.111Z,940.95
2018-07-24T12:14:49.313Z,940.90
2018-07-24T12:15:57.819Z,940.94
2018-07-24T12:17:04.239Z,940.93
2018-07-24T12:18:12.882Z,940.94
2018-07-24T12:19:20.531Z,940.91
2018-07-24T12:20:28.467Z,940.87
2018-07-24T12:21:36.942Z,940.88
2018-07-24T12:22:44.633Z,940.87
2018-07-24T12:23:52.361Z,940.86
2018-07-24T12:25:00.466Z,940.85
2018-07-24T12:26:08.494Z,940.88
2018-07-24T12:27:16.634Z,940.83
2018-07-24T12:28:24.795Z,940.78
2018-07-24T12:29:32.706Z,940.77
2018-07-24T12:30:41.117Z,940.75
2018-07-24T12:31:48.876Z,940.70
2018-07-24T12:32:57.157Z,940.73
2018-07-24T12:34:05.489Z,940.74
2018-07-24T12:35:13.594Z,940.73
2018-07-24T12:36:21.596Z,940.77
2018-07-24T12:37:30.050Z,940.71
2018-07-24T12:38:37.803Z,940.72
2018-07-24T12:39:45.824Z,940.69
2018-07-24T12:40:54.541Z,940.70
2018-07-24T12:42:02.038Z,940.70
2018-07-24T12:43:09.989Z,940.68
2018-07-24T12:44:18.098Z,940.68
2018-07-24T12:45:26.178Z,940.70
2018-07-24T12:46:34.230Z,940.71
2018-07-24T12:47:42.296Z,940.68
2018-07-24T12:48:50.388Z,940.68
2018-07-24T12:49:58.757Z,940.69
2018-07-24T12:51:06.624Z,940.74
2018-07-24T12:52:14.804Z,940.71
2018-07-24T12:53:22.975Z,940.73
2018-07-24T12:54:31.001Z,940.66
2018-07-24T12:55:39.130Z,940.65
2018-07-24T12:56:47.085Z,940.62
2018-07-24T12:57:55.302Z,940.66
2018-07-24T12:59:03.226Z,940.71
2018-07-24T13:00:11.316Z,940.68
2018-07-24T13:01:19.494Z,940.67
2018-07-24T13:02:27.477Z,940.66
2018-07-24T13:03:35.530Z,940.64
2018-07-24T13:04:43.645Z,940.64
2018-07-24T13:05:51.715Z,940.63
2018-07-24T13:06:59.877Z,940.56
2018-07-24T13:08:08.112Z,940.60
2018-07-24T13:09:16.027Z,940.65
2018-07-24T13:10:24.016Z,940.56
2018-07-24T13:11:32.147Z,940.56
2018-07-24T13:12:40.277Z,940.51
2018-07-24T13:13:48.247Z,940.50
2018-07-24T13:14:56.493Z,940.54
2018-07-24T13:16:04.630Z,940.50
2018-07-24T13:17:12.758Z,940.51
2018-07-24T13:18:20.981Z,940.54
2018-07-24T13:19:29.035Z,940.47
2018-07-24T13:20:37.337Z,940.52
2018-07-24T13:21:45.159Z,940.49
2018-07-24T13:22:53.594Z,940.48
2018-07-24T13:24:01.301Z,940.47
2018-07-24T13:25:09.482Z,940.45
2018-07-24T13:26:17.810Z,940.49
2018-07-24T13:27:25.838Z,940.50
2018-07-24T13:28:34.728Z,940.52
2018-07-24T13:29:41.791Z,940.44
2018-07-24T13:30:50.176Z,940.46
2018-07-24T13:31:58.278Z,940.47
2018-07-24T13:33:05.891Z,940.48
2018-07-24T13:34:14.072Z,940.51
2018-07-24T13:35:22.060Z,940.48
2018-07-24T13:36:30.134Z,940.48
2018-07-24T13:37:38.320Z,940.47
2018-07-24T13:38:46.272Z,940.44
2018-07-24T13:39:54.391Z,940.45
2018-07-24T13:41:02.496Z,940.43
2018-07-24T13:42:10.494Z,940.47
2018-07-24T13:43:18.570Z,940.49
2018-07-24T13:44:26.930Z,940.53
2018-07-24T13:45:34.914Z,940.52
2018-07-24T13:46:42.984Z,940.47
2018-07-24T13:47:51.374Z,940.50
2018-07-24T13:48:59.140Z,940.45
2018-07-24T13:50:07.307Z,940.46
2018-07-24T13:51:15.274Z,940.48
2018-07-24T13:52:23.378Z,940.44
2018-07-24T13:53:31.437Z,940.43
2018-07-24T13:54:39.501Z,940.46
2018-07-24T13:55:47.684Z,940.43
2018-07-24T13:56:55.729Z,940.41
2018-07-24T13:58:03.744Z,940.40
2018-07-24T13:59:11.814Z,940.38
2018-07-24T14:00:19.886Z,940.42
2018-07-24T14:01:28.048Z,940.42
2018-07-24T14:02:36.019Z,940.43
2018-07-24T14:03:44.107Z,940.46
2018-07-24T14:04:52.183Z,940.41
2018-07-24T14:06:00.263Z,940.36
2018-07-24T14:07:08.434Z,940.39
2018-07-24T14:08:16.399Z,940.35
2018-07-24T14:09:24.475Z,940.38
2018-07-24T14:10:32.547Z,940.34
2018-07-24T14:11:40.645Z,940.30
2018-07-24T14:12:48.787Z,940.35
2018-07-24T14:13:56.923Z,940.34
2018-07-24T14:15:05.255Z,940.34
2018-07-24T14:16:12.960Z,940.33
2018-07-24T14:17:21.078Z,940.36
2018-07-24T14:18:29.104Z,940.37